Time;durP1;ratioP1;P1;durP2;ratioP2;P2;SDS_P1;SDS_P2;PMS_P1;PMS_P2;Temp;Humidity;BMP_temperature;BMP_pressure;BME280_temperature;BME280_humidity;BME280_pressure;Samples;Min_cycle;Max_cycle;Signal;HPM_P1;HPM_P2
2022/05/17 00:01:51;;;;;;;5.97;3.13;;;12.60;99.90;;;;;;5060415;23;20042;-71
2022/05/17 00:04:17;;;;;;;7.82;2.70;;;12.60;99.90;;;;;;5036280;28;20551;-71
2022/05/17 00:06:42;;;;;;;12.40;3.78;;;12.60;99.90;;;;;;5036364;28;20029;-71
2022/05/17 00:09:09;;;;;;;8.20;2.92;;;12.50;99.90;;;;;;5036455;28;20113;-73
2022/05/17 00:11:34;;;;;;;11.48;4.03;;;12.50;99.90;;;;;;5036524;28;20040;-71
2022/05/17 00:14:00;;;;;;;13.20;3.45;;;12.50;99.90;;;;;;5036595;28;20025;-71
2022/05/17 00:16:26;;;;;;;11.57;2.85;;;12.50;99.90;;;;;;5036539;28;20029;-71
2022/05/17 00:18:52;;;;;;;5.97;2.67;;;12.50;99.90;;;;;;5036380;28;20029;-71
2022/05/17 00:21:18;;;;;;;9.38;3.33;;;12.50;99.90;;;;;;5035353;28;20021;-71
2022/05/17 00:23:44;;;;;;;6.82;2.65;;;12.40;99.90;;;;;;5036215;28;20525;-71
2022/05/17 00:26:10;;;;;;;15.75;5.03;;;12.40;99.90;;;;;;5036286;28;20060;-71
2022/05/17 00:28:37;;;;;;;9.52;3.05;;;12.40;99.90;;;;;;5036175;28;20057;-71
2022/05/17 00:31:06;;;;;;;7.53;2.63;;;12.40;99.90;;;;;;5035456;28;20022;-71
2022/05/17 00:33:32;;;;;;;15.60;4.40;;;12.40;99.90;;;;;;5016650;28;20037;-71
2022/05/17 00:35:57;;;;;;;11.85;2.70;;;12.40;99.90;;;;;;5016169;28;20382;-71
2022/05/17 00:38:23;;;;;;;10.93;2.95;;;12.40;99.90;;;;;;5015969;28;20029;-71
2022/05/17 00:40:49;;;;;;;13.02;4.03;;;12.40;99.90;;;;;;5016102;28;20021;-72
2022/05/17 00:43:29;;;;;;;11.05;3.38;;;12.40;99.90;;;;;;5015841;28;20018;-71
2022/05/17 00:46:00;;;;;;;7.20;2.78;;;12.40;99.90;;;;;;5015038;28;20493;-71
2022/05/17 00:48:26;;;;;;;4.93;2.55;;;12.40;99.90;;;;;;5016092;28;20109;-71
2022/05/17 00:50:54;;;;;;;7.55;3.55;;;12.40;99.90;;;;;;5016458;28;20490;-71
2022/05/17 00:53:31;;;;;;;10.07;2.65;;;12.30;99.90;;;;;;5015624;28;20076;-71
2022/05/17 00:56:00;;;;;;;8.10;3.08;;;12.30;99.90;;;;;;5015815;28;20026;-72
2022/05/17 00:58:33;;;;;;;12.07;3.65;;;12.30;99.90;;;;;;5015573;28;20096;-71
2022/05/17 01:01:13;;;;;;;8.50;2.90;;;12.30;99.90;;;;;;5028763;28;20076;-71
2022/05/17 01:03:57;;;;;;;5.20;2.42;;;12.30;99.90;;;;;;5035242;28;20032;-71
2022/05/17 01:06:27;;;;;;;8.00;3.13;;;12.30;99.90;;;;;;5035487;28;20040;-71
2022/05/17 01:08:53;;;;;;;9.48;3.10;;;12.30;99.90;;;;;;5035240;28;20037;-71
2022/05/17 01:11:19;;;;;;;11.25;3.28;;;12.30;99.90;;;;;;5034650;28;20034;-71
2022/05/17 01:16:29;;;;;;;12.57;3.60;;;12.30;99.90;;;;;;5035579;28;20072;-71
2022/05/17 01:18:55;;;;;;;13.20;3.47;;;12.30;99.90;;;;;;5035070;28;20116;-71
2022/05/17 01:21:21;;;;;;;9.15;3.47;;;12.30;99.90;;;;;;5034666;28;20105;-71
2022/05/17 01:23:47;;;;;;;9.15;3.10;;;12.20;99.90;;;;;;5035086;28;20045;-71
2022/05/17 01:26:18;;;;;;;9.10;2.70;;;12.20;99.90;;;;;;5034985;28;20100;-71
2022/05/17 01:28:43;;;;;;;5.65;2.60;;;12.20;99.90;;;;;;5035653;28;20437;-71
2022/05/17 01:31:10;;;;;;;7.57;3.13;;;12.10;99.90;;;;;;5034315;28;20049;-72
2022/05/17 01:33:39;;;;;;;7.85;2.53;;;12.20;99.90;;;;;;5034753;28;20060;-73
2022/05/17 01:36:07;;;;;;;13.55;2.90;;;12.10;99.90;;;;;;5034533;28;20125;-71
2022/05/17 01:38:33;;;;;;;12.55;3.08;;;12.10;99.90;;;;;;5034700;28;20018;-71
2022/05/17 01:40:59;;;;;;;5.82;2.78;;;12.10;99.90;;;;;;5033660;28;20025;-71
2022/05/17 01:43:25;;;;;;;6.85;2.78;;;12.10;99.90;;;;;;5034609;28;20389;-71
2022/05/17 01:45:51;;;;;;;7.80;3.33;;;12.00;99.90;;;;;;5034801;28;20497;-71
2022/05/17 01:48:16;;;;;;;4.28;2.60;;;12.00;99.90;;;;;;5034533;28;20045;-71
2022/05/17 01:50:42;;;;;;;7.18;2.47;;;11.90;99.90;;;;;;5033054;28;20018;-71
2022/05/17 01:53:08;;;;;;;10.13;3.22;;;11.90;99.90;;;;;;5034251;28;20021;-71
2022/05/17 01:55:34;;;;;;;6.63;3.10;;;11.90;99.90;;;;;;5034420;28;20030;-70
2022/05/17 01:58:00;;;;;;;4.68;2.53;;;11.80;99.90;;;;;;5033973;28;20452;-71
2022/05/17 02:00:26;;;;;;;10.10;2.70;;;11.80;99.90;;;;;;5034219;28;20469;-71
2022/05/17 02:02:52;;;;;;;7.43;2.83;;;11.80;99.90;;;;;;5034215;28;20083;-71
2022/05/17 02:05:19;;;;;;;8.20;2.88;;;11.80;99.90;;;;;;5034299;28;20122;-71
2022/05/17 02:07:44;;;;;;;7.40;2.65;;;11.80;99.90;;;;;;5034157;28;20112;-71
2022/05/17 02:10:11;;;;;;;19.13;3.08;;;11.80;99.90;;;;;;5033448;28;20056;-71
2022/05/17 02:12:37;;;;;;;10.32;3.17;;;11.80;99.90;;;;;;5034075;28;20426;-71
2022/05/17 02:15:04;;;;;;;6.57;2.67;;;11.70;99.90;;;;;;5034157;28;20060;-72
2022/05/17 02:17:30;;;;;;;11.45;3.53;;;11.70;99.90;;;;;;5034099;28;20018;-71
2022/05/17 02:19:55;;;;;;;7.85;2.75;;;11.70;99.90;;;;;;5033416;28;20071;-71
2022/05/17 02:22:22;;;;;;;8.32;2.72;;;11.60;99.90;;;;;;5034551;28;20022;-71
2022/05/17 02:24:48;;;;;;;20.27;3.28;;;11.60;99.90;;;;;;5034065;28;20101;-71
2022/05/17 02:27:13;;;;;;;9.07;2.92;;;11.60;99.90;;;;;;5034017;28;20056;-71
2022/05/17 02:29:39;;;;;;;6.95;3.10;;;11.50;99.90;;;;;;5033144;28;20032;-73
2022/05/17 02:32:05;;;;;;;6.93;3.00;;;11.60;99.90;;;;;;5033796;28;20032;-71
2022/05/17 02:34:31;;;;;;;6.03;2.70;;;11.60;99.90;;;;;;5034334;28;20025;-71
2022/05/17 02:36:57;;;;;;;4.70;3.30;;;11.50;99.90;;;;;;5033935;28;20370;-71
2022/05/17 02:39:22;;;;;;;9.70;3.03;;;11.60;99.90;;;;;;5032673;28;20104;-71
2022/05/17 02:41:48;;;;;;;6.05;3.35;;;11.50;99.90;;;;;;5033652;28;20470;-71
2022/05/17 02:44:14;;;;;;;7.20;3.08;;;11.50;99.90;;;;;;5033924;28;20389;-71
2022/05/17 02:46:40;;;;;;;10.48;3.70;;;11.50;99.90;;;;;;5033862;28;20033;-71
2022/05/17 02:49:07;;;;;;;10.52;3.88;;;11.50;99.90;;;;;;5033308;28;20030;-72
2022/05/17 02:51:34;;;;;;;10.82;3.72;;;11.50;99.90;;;;;;5033460;28;20477;-71
2022/05/17 02:54:00;;;;;;;7.20;3.33;;;11.50;99.90;;;;;;5033404;28;20026;-71
2022/05/17 02:56:26;;;;;;;12.15;3.47;;;11.50;99.90;;;;;;5033608;28;20030;-71
2022/05/17 02:58:51;;;;;;;8.32;3.05;;;11.50;99.90;;;;;;5032921;28;20030;-72
2022/05/17 03:01:17;;;;;;;9.20;3.05;;;11.50;99.90;;;;;;5033693;28;20120;-71
2022/05/17 03:03:43;;;;;;;10.50;2.92;;;11.50;99.90;;;;;;5033526;28;20060;-71
2022/05/17 03:06:10;;;;;;;7.35;3.47;;;11.50;99.90;;;;;;5033742;28;20112;-71
2022/05/17 03:08:36;;;;;;;8.98;3.53;;;11.50;99.90;;;;;;5034060;28;20499;-71
2022/05/17 03:11:05;;;;;;;10.40;3.67;;;11.50;99.90;;;;;;5036875;28;20022;-71
2022/05/17 03:13:30;;;;;;;6.63;2.95;;;11.50;99.90;;;;;;5037298;28;20547;-71
2022/05/17 03:15:56;;;;;;;7.13;3.13;;;11.50;99.90;;;;;;5037275;28;20037;-71
2022/05/17 03:18:21;;;;;;;5.40;2.80;;;11.60;99.90;;;;;;5036063;28;20021;-71
2022/05/17 03:20:50;;;;;;;17.85;3.95;;;11.70;99.90;;;;;;5037232;28;20022;-71
2022/05/17 03:23:16;;;;;;;6.28;3.67;;;11.70;99.90;;;;;;5036340;28;20025;-71
2022/05/17 03:25:42;;;;;;;6.75;3.33;;;11.80;99.90;;;;;;5037144;28;20029;-71
2022/05/17 03:28:10;;;;;;;10.82;3.63;;;11.80;99.90;;;;;;5037321;28;20033;-71
2022/05/17 03:30:35;;;;;;;9.98;3.83;;;11.90;99.90;;;;;;5037222;28;20386;-71
2022/05/17 03:33:01;;;;;;;10.57;3.42;;;11.90;99.90;;;;;;5037204;28;20022;-73
2022/05/17 03:35:26;;;;;;;6.72;3.80;;;12.00;99.90;;;;;;5035896;28;20036;-72
2022/05/17 03:37:52;;;;;;;6.65;3.17;;;12.00;99.90;;;;;;5037283;28;20036;-71
2022/05/17 03:40:18;;;;;;;8.55;3.88;;;12.00;99.90;;;;;;5037259;28;20045;-71
2022/05/17 03:42:44;;;;;;;10.07;4.55;;;12.10;99.90;;;;;;5036827;28;20467;-71
2022/05/17 03:45:10;;;;;;;12.68;4.10;;;12.10;99.90;;;;;;5036879;28;20026;-71
2022/05/17 03:47:36;;;;;;;13.80;4.20;;;12.10;99.90;;;;;;5036860;28;20071;-71
2022/05/17 03:50:03;;;;;;;9.13;3.65;;;12.10;99.90;;;;;;5037031;28;20107;-71
2022/05/17 03:52:31;;;;;;;15.98;4.30;;;12.10;99.90;;;;;;5035482;28;20673;-72
2022/05/17 03:54:58;;;;;;;19.98;6.18;;;12.20;99.90;;;;;;5036795;28;20022;-71
2022/05/17 03:57:25;;;;;;;12.55;4.57;;;12.10;99.90;;;;;;5036686;28;20508;-71
2022/05/17 03:59:50;;;;;;;13.40;3.67;;;12.20;99.90;;;;;;5036544;28;20034;-71
2022/05/17 04:02:16;;;;;;;11.07;3.83;;;12.20;99.90;;;;;;5036286;28;20030;-71
2022/05/17 04:04:41;;;;;;;8.23;3.53;;;12.20;99.90;;;;;;5036433;28;20029;-71
2022/05/17 04:07:07;;;;;;;9.10;4.45;;;12.20;99.90;;;;;;5036525;28;20465;-71
2022/05/17 04:09:33;;;;;;;8.30;4.07;;;12.20;99.90;;;;;;5035821;28;20049;-71
2022/05/17 04:11:59;;;;;;;7.50;3.65;;;12.30;99.90;;;;;;5036278;28;20495;-71
2022/05/17 04:14:24;;;;;;;12.23;4.40;;;12.30;99.90;;;;;;5036288;28;20389;-71
2022/05/17 04:16:50;;;;;;;15.25;5.13;;;12.40;99.90;;;;;;5035254;28;20025;-71
2022/05/17 04:19:16;;;;;;;10.90;4.03;;;12.30;99.90;;;;;;5036607;28;20029;-71
2022/05/17 04:21:43;;;;;;;10.23;4.50;;;12.40;99.90;;;;;;5035940;28;20017;-71
2022/05/17 04:24:09;;;;;;;7.15;4.28;;;12.40;99.90;;;;;;5036286;28;20108;-71
2022/05/17 04:26:35;;;;;;;10.32;4.07;;;12.40;99.90;;;;;;5035869;28;20040;-71
2022/05/17 04:29:01;;;;;;;8.32;4.07;;;12.40;99.90;;;;;;5035944;28;20029;-71
2022/05/17 04:31:27;;;;;;;11.20;4.63;;;12.40;99.90;;;;;;5036442;28;20397;-71
2022/05/17 04:33:52;;;;;;;12.88;3.90;;;12.50;99.90;;;;;;5036689;28;20381;-71
2022/05/17 04:36:18;;;;;;;8.52;4.43;;;12.40;99.90;;;;;;5035734;28;20055;-71
2022/05/17 04:38:44;;;;;;;9.10;4.13;;;12.40;99.90;;;;;;5035825;28;20405;-71
2022/05/17 04:41:09;;;;;;;7.47;3.65;;;12.40;99.90;;;;;;5035793;28;20018;-71
2022/05/17 04:43:35;;;;;;;8.95;4.28;;;12.50;99.90;;;;;;5034973;28;20431;-71
2022/05/17 04:46:00;;;;;;;9.27;4.82;;;12.50;99.90;;;;;;5035794;28;20028;-71
2022/05/17 04:48:26;;;;;;;9.00;4.63;;;12.60;99.90;;;;;;5034285;28;20550;-72
2022/05/17 04:50:52;;;;;;;8.57;3.92;;;12.50;99.90;;;;;;5035634;28;20025;-71
2022/05/17 04:53:19;;;;;;;10.25;4.65;;;12.60;99.90;;;;;;5035500;28;20037;-71
2022/05/17 04:55:45;;;;;;;9.13;4.88;;;12.60;99.90;;;;;;5035643;28;20053;-71
2022/05/17 04:58:11;;;;;;;7.15;4.18;;;12.60;99.90;;;;;;5033763;28;20103;-71
2022/05/17 05:00:37;;;;;;;9.15;4.45;;;12.60;99.90;;;;;;5034502;28;20083;-71
2022/05/17 05:03:02;;;;;;;10.25;4.78;;;12.60;99.90;;;;;;5035352;28;20083;-71
2022/05/17 05:05:28;;;;;;;10.75;4.75;;;12.70;99.90;;;;;;5035283;28;20029;-71
2022/05/17 05:07:54;;;;;;;7.10;4.60;;;12.60;99.90;;;;;;5035144;28;20036;-71
2022/05/17 05:10:20;;;;;;;8.82;4.72;;;12.70;99.90;;;;;;5035285;28;20036;-71
2022/05/17 05:12:45;;;;;;;11.52;5.13;;;12.60;99.90;;;;;;5035090;28;20037;-71
2022/05/17 05:15:12;;;;;;;13.80;4.53;;;12.60;99.90;;;;;;5035149;28;20026;-71
2022/05/17 05:17:38;;;;;;;11.70;5.28;;;12.60;99.90;;;;;;5033741;28;20029;-71
2022/05/17 05:20:06;;;;;;;9.95;5.30;;;12.60;99.90;;;;;;5035776;28;20081;-71
2022/05/17 05:22:32;;;;;;;12.32;4.25;;;12.60;99.90;;;;;;5034909;28;20397;-71
2022/05/17 05:24:58;;;;;;;13.32;5.20;;;12.70;99.90;;;;;;5035069;28;20030;-71
2022/05/17 05:27:24;;;;;;;10.25;5.38;;;12.70;99.90;;;;;;5034927;28;20100;-71
2022/05/17 05:29:49;;;;;;;15.93;5.85;;;12.70;99.90;;;;;;5034794;28;20040;-71
2022/05/17 05:32:15;;;;;;;8.80;4.43;;;12.70;99.90;;;;;;5033185;28;20469;-71
2022/05/17 05:34:41;;;;;;;10.20;5.20;;;12.70;99.90;;;;;;5033780;28;20506;-73
2022/05/17 05:37:07;;;;;;;6.22;4.05;;;12.70;99.90;;;;;;5034377;28;20469;-71
2022/05/17 05:39:33;;;;;;;8.88;5.10;;;12.70;99.90;;;;;;5034709;28;20017;-71
2022/05/17 05:41:59;;;;;;;12.68;5.07;;;12.70;99.90;;;;;;5034979;28;20029;-71
2022/05/17 05:44:24;;;;;;;7.05;4.35;;;12.70;99.90;;;;;;5034559;28;20492;-71
2022/05/17 05:46:50;;;;;;;16.92;5.45;;;12.80;99.90;;;;;;5034691;28;20355;-71
2022/05/17 05:49:16;;;;;;;9.77;5.38;;;12.70;99.90;;;;;;5033594;28;20052;-72
2022/05/17 05:51:42;;;;;;;9.73;5.30;;;12.70;99.90;;;;;;5034341;28;20033;-71
2022/05/17 05:54:08;;;;;;;8.85;5.00;;;12.80;99.90;;;;;;5034596;28;20457;-71
2022/05/17 05:56:33;;;;;;;9.20;5.25;;;12.70;99.90;;;;;;5032938;28;20047;-71
2022/05/17 05:58:59;;;;;;;11.57;5.13;;;12.70;99.90;;;;;;5034810;28;20043;-71
2022/05/17 06:01:26;;;;;;;13.40;5.93;;;12.80;99.90;;;;;;5032636;28;20033;-72
2022/05/17 06:03:52;;;;;;;7.90;4.43;;;12.80;99.90;;;;;;5031106;28;20068;-72
2022/05/17 06:06:17;;;;;;;9.07;4.60;;;12.80;99.90;;;;;;5033518;28;20076;-73
2022/05/17 06:08:43;;;;;;;11.80;5.03;;;12.80;99.90;;;;;;5034133;28;20021;-73
2022/05/17 06:11:09;;;;;;;14.07;4.72;;;12.80;99.90;;;;;;5034311;28;20033;-73
2022/05/17 06:13:36;;;;;;;15.00;5.25;;;12.80;99.90;;;;;;5032977;28;20112;-72
2022/05/17 06:16:02;;;;;;;10.65;4.65;;;12.80;99.90;;;;;;5030629;28;20488;-72
2022/05/17 06:18:28;;;;;;;12.52;5.10;;;12.80;99.90;;;;;;5032406;28;20539;-73
2022/05/17 06:20:55;;;;;;;16.83;5.43;;;12.80;99.90;;;;;;5034395;28;20017;-73
2022/05/17 06:23:22;;;;;;;10.20;5.35;;;12.90;99.90;;;;;;5034576;28;20014;-72
2022/05/17 06:25:48;;;;;;;8.35;4.20;;;12.90;99.90;;;;;;5033967;28;20101;-72
2022/05/17 06:28:13;;;;;;;10.70;4.25;;;12.90;99.90;;;;;;5034484;28;20108;-72
2022/05/17 06:30:41;;;;;;;10.77;4.05;;;13.00;99.90;;;;;;5033198;28;20025;-72
2022/05/17 06:33:08;;;;;;;11.02;4.57;;;13.00;99.90;;;;;;5033986;28;20105;-72
2022/05/17 06:35:34;;;;;;;10.43;4.57;;;13.10;99.90;;;;;;5034289;28;20029;-72
2022/05/17 06:38:00;;;;;;;11.20;4.50;;;13.10;99.90;;;;;;5033906;28;20099;-73
2022/05/17 06:40:25;;;;;;;9.20;5.05;;;13.10;99.90;;;;;;5033895;28;20057;-73
2022/05/17 06:42:51;;;;;;;10.75;4.72;;;13.10;99.90;;;;;;5034297;28;20049;-73
2022/05/17 06:45:16;;;;;;;11.23;4.82;;;13.20;99.90;;;;;;5035860;28;20033;-73
2022/05/17 06:47:42;;;;;;;10.45;4.45;;;13.20;99.90;;;;;;5037198;28;20030;-73
2022/05/17 06:50:10;;;;;;;12.45;4.95;;;13.30;99.90;;;;;;5038062;28;20075;-72
2022/05/17 06:52:36;;;;;;;14.43;5.10;;;13.30;99.90;;;;;;5038084;28;20036;-72
2022/05/17 06:55:04;;;;;;;12.25;4.25;;;13.30;99.90;;;;;;5037675;28;20033;-73
2022/05/17 06:57:29;;;;;;;16.73;4.63;;;13.30;99.90;;;;;;5037686;28;20032;-73
2022/05/17 06:59:55;;;;;;;16.75;4.97;;;13.30;99.90;;;;;;5036255;28;20017;-73
2022/05/17 07:02:21;;;;;;;13.93;4.55;;;13.40;99.90;;;;;;5037539;28;20075;-72
2022/05/17 07:04:48;;;;;;;13.68;5.88;;;13.40;99.90;;;;;;5037795;28;20027;-72
2022/05/17 07:07:13;;;;;;;13.70;4.93;;;13.50;99.90;;;;;;5037986;28;20108;-73
2022/05/17 07:09:39;;;;;;;17.50;4.60;;;13.60;99.90;;;;;;5037681;28;20065;-73
2022/05/17 07:14:49;;;;;;;16.52;5.05;;;13.70;99.90;;;;;;5037790;28;20040;-74
2022/05/17 07:17:18;;;;;;;11.60;4.63;;;13.80;99.90;;;;;;5035644;28;20424;-74
2022/05/17 07:19:44;;;;;;;10.65;4.95;;;13.90;99.90;;;;;;5038972;28;20470;-74
2022/05/17 07:22:10;;;;;;;16.83;5.53;;;14.00;99.90;;;;;;5038391;28;20025;-73
2022/05/17 07:24:37;;;;;;;9.18;5.40;;;14.10;99.90;;;;;;5037528;28;20014;-75
2022/05/17 07:27:04;;;;;;;17.15;6.22;;;14.10;99.90;;;;;;5037233;28;20116;-73
2022/05/17 07:29:30;;;;;;;16.75;6.15;;;14.20;99.90;;;;;;5037387;28;20108;-73
2022/05/17 07:31:56;;;;;;;17.52;6.30;;;14.30;99.90;;;;;;5037106;28;20040;-73
2022/05/17 07:34:22;;;;;;;17.77;6.70;;;14.50;99.90;;;;;;5035344;28;20121;-73
2022/05/17 07:36:49;;;;;;;17.55;6.53;;;14.70;99.90;;;;;;5036074;28;20608;-74
2022/05/17 07:39:14;;;;;;;13.20;6.22;;;14.90;99.90;;;;;;5037006;28;20044;-74
2022/05/17 07:41:42;;;;;;;15.75;6.07;;;15.00;99.90;;;;;;5036887;28;20453;-74
2022/05/17 07:44:09;;;;;;;11.57;6.03;;;15.20;99.90;;;;;;5037046;28;20092;-74
2022/05/17 07:46:34;;;;;;;19.27;6.60;;;15.30;99.90;;;;;;5037395;28;20377;-74
2022/05/17 07:49:00;;;;;;;13.02;6.25;;;15.30;99.90;;;;;;5036896;28;20032;-74
2022/05/17 07:51:27;;;;;;;13.23;5.22;;;15.30;99.90;;;;;;5035922;28;20165;-73
2022/05/17 07:53:53;;;;;;;12.05;5.53;;;15.50;99.90;;;;;;5037114;28;20029;-74
2022/05/17 07:56:19;;;;;;;24.10;6.20;;;15.60;99.90;;;;;;5036107;28;20025;-74
2022/05/17 07:58:44;;;;;;;11.40;5.70;;;15.70;99.90;;;;;;5035288;28;20075;-74
2022/05/17 08:01:10;;;;;;;14.40;5.68;;;15.70;99.90;;;;;;5036711;28;20071;-74
2022/05/17 08:03:35;;;;;;;13.35;6.38;;;15.70;99.90;;;;;;5036235;28;20095;-74
2022/05/17 08:06:01;;;;;;;15.48;5.25;;;15.60;99.90;;;;;;5037077;28;20041;-74
2022/05/17 08:08:27;;;;;;;12.90;5.53;;;15.70;99.90;;;;;;5035891;28;20033;-74
2022/05/17 08:10:53;;;;;;;13.73;5.32;;;15.70;99.90;;;;;;5036276;28;20044;-74
2022/05/17 08:13:21;;;;;;;14.43;5.47;;;16.00;99.90;;;;;;5036473;28;20378;-74
2022/05/17 08:15:48;;;;;;;15.55;4.75;;;16.00;99.90;;;;;;5036510;28;20025;-74
2022/05/17 08:18:15;;;;;;;11.23;4.38;;;16.10;99.90;;;;;;5036270;28;20057;-74
2022/05/17 08:20:40;;;;;;;9.77;4.53;;;16.10;99.90;;;;;;5036173;28;20029;-74
2022/05/17 08:23:06;;;;;;;13.48;4.60;;;16.00;99.90;;;;;;5034160;28;20441;-74
2022/05/17 08:28:17;;;;;;;17.23;5.20;;;16.10;99.90;;;;;;5036667;28;20036;-74
2022/05/17 08:30:43;;;;;;;10.38;4.25;;;16.20;99.90;;;;;;5036069;28;20023;-74
2022/05/17 08:33:19;;;;;;;16.40;5.57;;;16.20;99.90;;;;;;5035857;28;20028;-75
2022/05/17 08:35:50;;;;;;;14.18;5.13;;;16.20;99.90;;;;;;5036038;28;20025;-74
2022/05/17 08:38:22;;;;;;;16.40;5.45;;;16.20;99.90;;;;;;5035827;28;20030;-74
2022/05/17 08:41:05;;;;;;;12.82;4.55;;;16.20;99.90;;;;;;5034425;28;20025;-74
2022/05/17 08:43:51;;;;;;;13.23;5.03;;;16.30;99.90;;;;;;5034082;28;20017;-72
2022/05/17 08:47:14;;;;;;;7.53;4.00;;;16.40;99.90;;;;;;5035664;28;20029;-72
2022/05/17 08:49:50;;;;;;;12.20;4.75;;;16.40;99.90;;;;;;4977616;28;20070;-72
2022/05/17 08:52:20;;;;;;;9.68;4.72;;;16.60;99.90;;;;;;4992741;28;20027;-72
2022/05/17 08:54:53;;;;;;;12.23;5.28;;;16.60;99.90;;;;;;5017159;28;20033;-72
2022/05/17 08:57:29;;;;;;;;;;;16.70;99.90;;;;;;5035776;28;20029;-72
2022/05/17 09:00:02;;;;;;;8.20;4.35;;;17.00;99.90;;;;;;5035327;28;19909;-72
2022/05/17 09:02:53;;;;;;;11.98;4.13;;;17.20;99.90;;;;;;5035226;28;20030;-72
2022/05/17 09:05:36;;;;;;;16.33;4.57;;;17.40;99.90;;;;;;5028780;28;20029;-72
2022/05/17 09:08:28;;;;;;;13.13;4.45;;;17.50;99.90;;;;;;5034485;28;20148;-72
2022/05/17 09:10:59;;;;;;;7.40;3.55;;;17.50;99.90;;;;;;5035278;28;20148;-72
2022/05/17 09:13:59;;;;;;;10.43;3.65;;;17.70;99.90;;;;;;5034923;28;20466;-72
2022/05/17 09:16:27;;;;;;;6.95;3.55;;;17.80;99.90;;;;;;5015552;28;20045;-72
2022/05/17 09:18:53;;;;;;;10.18;3.60;;;17.70;99.90;;;;;;5015224;28;20033;-73
2022/05/17 09:21:27;;;;;;;10.80;3.47;;;17.80;99.90;;;;;;5015013;28;20026;-72
2022/05/17 09:23:52;;;;;;;10.40;3.55;;;18.00;99.90;;;;;;5015257;28;20466;-72
2022/05/17 09:26:19;;;;;;;9.50;3.97;;;18.00;99.90;;;;;;5015766;28;20041;-72
2022/05/17 09:28:53;;;;;;;7.75;3.33;;;17.90;99.90;;;;;;5019590;28;20052;-71
2022/05/17 09:31:21;;;;;;;9.65;3.60;;;17.80;99.90;;;;;;5031020;28;20022;-72
2022/05/17 09:33:48;;;;;;;10.27;3.67;;;17.90;99.90;;;;;;5034340;28;20159;-73
2022/05/17 09:36:28;;;;;;;13.73;4.40;;;18.10;99.90;;;;;;5030018;28;20033;-72
2022/05/17 09:38:55;;;;;;;8.80;3.67;;;18.20;99.90;;;;;;5033670;28;20444;-71
2022/05/17 09:41:26;;;;;;;7.93;2.35;;;18.40;99.90;;;;;;5035611;28;20021;-72
2022/05/17 09:43:58;;;;;;;9.52;3.13;;;18.60;99.90;;;;;;5036195;28;20040;-72
2022/05/17 09:46:35;;;;;;;10.88;3.88;;;18.70;99.90;;;;;;5034452;28;20030;-72
2022/05/17 09:52:42;;;;;;;9.35;3.72;;;18.90;99.90;;;;;;5034462;28;20100;-72
2022/05/17 09:55:12;;;;;;;13.23;3.25;;;19.00;99.90;;;;;;5034089;28;20478;-72
2022/05/17 09:57:50;;;;;;;11.07;3.47;;;19.20;99.90;;;;;;5034282;28;20488;-72
2022/05/17 10:00:22;;;;;;;12.35;3.92;;;19.40;99.90;;;;;;5034320;28;20025;-72
2022/05/17 10:02:57;;;;;;;9.77;3.85;;;19.50;99.90;;;;;;5033869;28;20071;-72
2022/05/17 10:05:44;;;;;;;9.00;3.75;;;19.60;99.90;;;;;;5032898;28;20022;-71
2022/05/17 10:08:12;;;;;;;12.27;2.90;;;19.60;99.90;;;;;;5034106;28;20546;-72
2022/05/17 10:10:46;;;;;;;12.07;3.13;;;19.60;99.90;;;;;;5034266;28;20482;-72
2022/05/17 10:13:21;;;;;;;9.23;3.38;;;19.70;99.90;;;;;;5033966;28;20021;-72
2022/05/17 10:15:50;;;;;;;7.75;3.33;;;19.70;99.90;;;;;;5034291;28;20067;-72
2022/05/17 10:18:46;;;;;;;10.13;3.50;;;19.80;99.90;;;;;;5033759;28;20044;-72
2022/05/17 10:21:20;;;;;;;14.73;4.13;;;20.00;99.90;;;;;;5033701;28;20032;-72
2022/05/17 10:23:51;;;;;;;;;;;20.00;99.90;;;;;;5033241;28;20034;-72
2022/05/17 10:26:22;;;;;;;5.20;3.58;;;20.10;99.90;;;;;;5034196;28;20422;-72
2022/05/17 10:28:58;;;;;;;9.32;3.80;;;20.20;99.90;;;;;;5033013;28;20041;-72
2022/05/17 10:31:29;;;;;;;5.88;2.88;;;20.30;99.90;;;;;;5033648;28;20074;-72
2022/05/17 10:34:07;;;;;;;11.50;3.33;;;20.20;99.90;;;;;;5034107;28;20036;-72
2022/05/17 10:36:40;;;;;;;7.68;3.28;;;20.10;99.90;;;;;;5033703;28;20079;-72
2022/05/17 10:39:31;;;;;;;11.52;3.95;;;20.00;99.90;;;;;;5033265;28;20105;-72
2022/05/17 10:41:58;;;;;;;9.43;3.55;;;19.90;99.90;;;;;;5033173;28;20028;-72
2022/05/17 10:44:37;;;;;;;10.82;3.78;;;19.90;99.90;;;;;;5031565;28;20025;-72
2022/05/17 10:47:11;;;;;;;11.45;3.75;;;19.80;99.90;;;;;;5033363;28;20026;-72
2022/05/17 10:50:04;;;;;;;9.65;2.70;;;19.90;99.90;;;;;;5033462;28;20152;-72
2022/05/17 10:52:58;;;;;;;9.40;3.55;;;19.70;99.90;;;;;;5033214;28;20026;-72
2022/05/17 10:55:35;;;;;;;13.98;3.50;;;19.50;99.90;;;;;;5033128;28;20473;-72
2022/05/17 10:58:10;;;;;;;16.08;4.00;;;19.40;99.90;;;;;;5032662;28;20033;-72
2022/05/17 11:00:41;;;;;;;15.18;4.13;;;19.20;99.90;;;;;;5033319;28;20386;-72
2022/05/17 11:03:39;;;;;;;19.17;4.40;;;19.10;99.90;;;;;;5032931;28;20037;-72
2022/05/17 11:06:26;;;;;;;10.82;4.03;;;19.10;99.90;;;;;;5033208;28;20113;-72
2022/05/17 11:09:11;;;;;;;19.83;4.22;;;19.00;99.90;;;;;;5033310;28;20412;-72
2022/05/17 11:11:40;;;;;;;15.02;3.65;;;18.90;99.90;;;;;;5032877;28;20021;-72
2022/05/17 11:14:15;;;;;;;10.20;3.97;;;18.80;99.90;;;;;;5031341;28;20477;-72
2022/05/17 11:17:03;;;;;;;8.27;3.88;;;18.70;99.90;;;;;;5033096;28;20228;-72
2022/05/17 11:19:40;;;;;;;17.13;4.97;;;18.60;99.90;;;;;;5032977;28;20017;-72
2022/05/17 11:22:19;;;;;;;12.48;3.45;;;18.60;99.90;;;;;;5033045;28;20048;-72
2022/05/17 11:25:18;;;;;;;11.27;4.10;;;18.70;99.90;;;;;;5033202;28;20440;-72
2022/05/17 11:28:04;;;;;;;10.52;3.47;;;18.80;99.90;;;;;;5032630;28;20108;-72
2022/05/17 11:31:07;;;;;;;9.15;3.20;;;18.80;99.90;;;;;;5015135;28;20026;-72
2022/05/17 11:33:39;;;;;;;10.35;3.58;;;18.80;99.90;;;;;;4983360;28;20038;-72
2022/05/17 11:36:28;;;;;;;10.50;3.60;;;18.80;99.90;;;;;;5022484;28;20102;-72
2022/05/17 11:38:53;;;;;;;14.35;4.28;;;18.70;99.90;;;;;;5036662;28;20018;-72
2022/05/17 11:41:31;;;;;;;8.30;3.20;;;18.60;99.90;;;;;;5036405;28;20377;-72
2022/05/17 11:44:13;;;;;;;9.15;3.15;;;18.50;99.90;;;;;;5036219;28;20079;-72
2022/05/17 11:46:39;;;;;;;7.95;3.45;;;18.60;99.90;;;;;;5035617;28;20034;-72
2022/05/17 11:49:07;;;;;;;9.82;3.78;;;18.80;99.90;;;;;;5036127;28;20119;-72
2022/05/17 11:51:38;;;;;;;13.15;3.58;;;18.60;99.90;;;;;;5035965;28;20032;-72
2022/05/17 11:54:07;;;;;;;10.13;3.22;;;18.60;99.90;;;;;;5036140;28;20025;-72
2022/05/17 11:56:36;;;;;;;14.15;3.50;;;18.70;99.90;;;;;;5035955;28;20091;-72
2022/05/17 11:59:08;;;;;;;7.07;3.30;;;18.70;99.90;;;;;;5033842;28;20473;-72
2022/05/17 12:01:34;;;;;;;9.88;3.00;;;18.70;99.90;;;;;;5034470;28;20067;-72
2022/05/17 12:04:20;;;;;;;5.75;2.90;;;18.80;99.90;;;;;;5059804;23;20431;-68
2022/05/17 12:06:48;;;;;;;7.18;2.85;;;18.90;99.90;;;;;;5035967;28;20029;-69
2022/05/17 12:09:22;;;;;;;8.05;2.40;;;19.10;99.90;;;;;;5035822;28;20393;-71
2022/05/17 12:12:03;;;;;;;5.78;2.53;;;19.20;99.90;;;;;;5036174;28;20053;-70
2022/05/17 12:14:58;;;;;;;9.27;2.40;;;19.10;99.90;;;;;;5015504;28;20547;-70
2022/05/17 12:17:30;;;;;;;4.80;2.03;;;19.30;99.90;;;;;;5016136;28;20057;-70
2022/05/17 12:20:10;;;;;;;7.05;2.53;;;19.30;99.90;;;;;;5016148;28;20068;-70
2022/05/17 12:22:44;;;;;;;10.25;2.42;;;19.10;99.90;;;;;;5016069;28;20034;-70
2022/05/17 12:25:17;;;;;;;8.70;2.97;;;19.20;99.90;;;;;;5016087;28;20021;-70
2022/05/17 12:27:45;;;;;;;13.65;2.83;;;19.40;99.90;;;;;;5013228;28;20036;-70
2022/05/17 12:33:08;;;;;;;5.45;2.35;;;19.70;99.90;;;;;;5015648;28;20393;-69
2022/05/17 12:35:33;;;;;;;13.73;2.20;;;19.80;99.90;;;;;;5015971;28;20034;-70
2022/05/17 12:37:59;;;;;;;8.68;2.10;;;20.00;99.90;;;;;;5015486;28;20040;-70
2022/05/17 12:43:27;;;;;;;7.25;2.83;;;20.70;99.90;;;;;;5014631;28;20122;-70
2022/05/17 12:45:53;;;;;;;6.13;2.47;;;21.00;99.90;;;;;;5015504;28;20080;-70
2022/05/17 12:48:35;;;;;;;5.82;1.92;;;21.20;99.90;;;;;;5014249;28;20442;-70
2022/05/17 12:51:04;;;;;;;6.50;2.45;;;22.20;99.90;;;;;;5015430;28;20478;-70
2022/05/17 12:54:04;;;;;;;5.50;2.25;;;23.40;99.90;;;;;;5015263;28;20109;-70
2022/05/17 12:56:36;;;;;;;13.85;3.33;;;24.50;99.90;;;;;;5011764;28;20034;-70
2022/05/17 12:59:05;;;;;;;11.02;2.03;;;25.00;99.90;;;;;;5015629;28;20022;-71
2022/05/17 13:01:30;;;;;;;5.10;2.22;;;25.30;99.90;;;;;;5015093;28;20076;-71
2022/05/17 13:03:59;;;;;;;3.40;1.88;;;24.80;99.90;;;;;;5013528;28;20033;-70
2022/05/17 13:06:44;;;;;;;12.10;2.08;;;24.40;99.90;;;;;;5014969;28;20053;-70
2022/05/17 13:09:24;;;;;;;7.43;2.22;;;24.30;99.90;;;;;;5012609;28;20080;-71
2022/05/17 13:11:52;;;;;;;9.07;2.78;;;23.90;99.90;;;;;;5012483;28;20389;-70
2022/05/17 13:14:27;;;;;;;9.25;2.13;;;23.70;99.90;;;;;;5014908;28;20493;-71